createdAt,value
2022-09-17T00:01:03.205Z,6.53
2022-09-17T00:03:30.097Z,6.38
2022-09-17T00:06:05.961Z,7.18
2022-09-17T00:08:33.165Z,7.20
2022-09-17T00:11:07.799Z,6.32
2022-09-17T00:13:34.448Z,6.57
2022-09-17T00:16:01.318Z,6.25
2022-09-17T00:18:27.966Z,6.40
2022-09-17T00:20:54.724Z,7.13
2022-09-17T00:23:21.463Z,6.32
2022-09-17T00:25:48.065Z,7.45
2022-09-17T00:28:15.472Z,6.95
2022-09-17T00:30:44.421Z,6.03
2022-09-17T00:33:13.463Z,6.10
2022-09-17T00:35:40.137Z,7.33
2022-09-17T00:38:06.799Z,5.95
2022-09-17T00:40:34.274Z,5.78
2022-09-17T00:43:01.431Z,6.15
2022-09-17T00:45:30.089Z,5.50
2022-09-17T00:48:02.680Z,5.78
2022-09-17T00:50:34.534Z,5.78
2022-09-17T00:53:18.051Z,5.38
2022-09-17T00:55:57.728Z,5.55
2022-09-17T00:58:25.918Z,5.30
2022-09-17T01:00:52.635Z,5.03
2022-09-17T01:03:19.495Z,5.70
2022-09-17T01:05:50.489Z,5.30
2022-09-17T01:08:44.817Z,5.45
2022-09-17T01:11:20.559Z,5.28
2022-09-17T01:14:13.475Z,5.75
2022-09-17T01:16:42.748Z,5.80
2022-09-17T01:19:18.967Z,5.82
2022-09-17T01:22:04.268Z,6.35
2022-09-17T01:24:55.777Z,6.35
2022-09-17T01:27:45.798Z,5.93
2022-09-17T01:30:27.676Z,5.82
2022-09-17T01:33:00.311Z,6.38
2022-09-17T01:35:38.652Z,6.68
2022-09-17T01:38:14.167Z,6.10
2022-09-17T01:41:10.792Z,6.40
2022-09-17T01:43:55.182Z,8.02
2022-09-17T01:46:30.803Z,6.70
2022-09-17T01:49:02.264Z,6.43
2022-09-17T01:51:37.056Z,6.57
2022-09-17T01:54:18.032Z,6.65
2022-09-17T01:56:52.025Z,6.72
2022-09-17T01:59:30.011Z,7.35
2022-09-17T02:02:13.573Z,7.03
2022-09-17T02:05:00.580Z,7.18
2022-09-17T02:07:28.880Z,7.68
2022-09-17T02:10:07.046Z,7.78
2022-09-17T02:12:39.395Z,7.70
2022-09-17T02:15:12.799Z,7.57
2022-09-17T02:17:45.222Z,7.60
2022-09-17T02:20:13.328Z,7.30
2022-09-17T02:22:45.397Z,7.03
2022-09-17T02:25:37.486Z,7.43
2022-09-17T02:28:04.041Z,7.45
2022-09-17T02:30:32.139Z,7.40
2022-09-17T02:32:59.496Z,7.50
2022-09-17T02:35:26.250Z,6.90
2022-09-17T02:37:53.299Z,7.30
2022-09-17T02:40:27.907Z,6.70
2022-09-17T02:43:13.292Z,7.68
2022-09-17T02:46:17.331Z,6.45
2022-09-17T02:49:08.812Z,6.68
2022-09-17T02:51:48.020Z,6.78
2022-09-17T02:54:33.961Z,7.25
2022-09-17T02:57:30.019Z,7.05
2022-09-17T03:00:17.094Z,7.53
2022-09-17T03:03:29.155Z,7.30
2022-09-17T03:05:56.558Z,6.80
2022-09-17T03:08:30.021Z,7.38
2022-09-17T03:10:56.784Z,7.25
2022-09-17T03:13:23.413Z,6.70
2022-09-17T03:15:50.124Z,7.70
2022-09-17T03:18:16.797Z,7.05
2022-09-17T03:20:43.436Z,7.25
2022-09-17T03:23:10.099Z,7.70
2022-09-17T03:25:36.673Z,6.80
2022-09-17T03:28:03.594Z,6.95
2022-09-17T03:30:30.240Z,7.30
2022-09-17T03:32:56.939Z,6.80
2022-09-17T03:35:23.536Z,6.90
2022-09-17T03:37:50.227Z,7.28
2022-09-17T03:40:17.089Z,6.43
2022-09-17T03:42:43.834Z,7.07
2022-09-17T03:45:10.685Z,7.18
2022-09-17T03:47:37.855Z,7.47
2022-09-17T03:50:05.970Z,6.50
2022-09-17T03:52:32.574Z,7.32
2022-09-17T03:54:59.182Z,6.95
2022-09-17T03:57:25.899Z,7.00
2022-09-17T03:59:52.593Z,6.15
2022-09-17T04:02:19.244Z,6.50
2022-09-17T04:04:45.895Z,6.90
2022-09-17T04:07:12.587Z,6.57
2022-09-17T04:09:39.168Z,6.70
2022-09-17T04:12:05.867Z,6.90
2022-09-17T04:14:32.485Z,6.90
2022-09-17T04:16:59.233Z,7.00
2022-09-17T04:19:25.829Z,6.97
2022-09-17T04:21:53.100Z,7.15
2022-09-17T04:24:19.807Z,6.80
2022-09-17T04:26:46.441Z,7.20
2022-09-17T04:29:13.095Z,7.03
2022-09-17T04:31:40.326Z,6.35
2022-09-17T04:34:07.133Z,7.13
2022-09-17T04:36:33.753Z,7.60
2022-09-17T04:39:00.365Z,7.18
2022-09-17T04:41:26.949Z,6.78
2022-09-17T04:43:53.728Z,6.97
2022-09-17T04:46:20.498Z,6.50
2022-09-17T04:48:47.125Z,6.93
2022-09-17T04:51:13.764Z,7.20
2022-09-17T04:53:40.446Z,7.35
2022-09-17T04:56:07.032Z,7.75
2022-09-17T04:58:33.660Z,7.55
2022-09-17T05:01:00.341Z,7.82
2022-09-17T05:03:27.279Z,8.32
2022-09-17T05:05:53.894Z,8.70
2022-09-17T05:08:22.922Z,9.93
2022-09-17T05:10:51.481Z,9.98
2022-09-17T05:13:18.992Z,11.60
2022-09-17T05:15:45.715Z,11.73
2022-09-17T05:18:12.404Z,10.35
2022-09-17T05:20:39.286Z,11.65
2022-09-17T05:23:05.995Z,11.35
2022-09-17T05:25:32.614Z,11.27
2022-09-17T05:28:01.309Z,11.05
2022-09-17T05:30:28.046Z,11.55
2022-09-17T05:33:05.700Z,11.30
2022-09-17T05:35:33.419Z,11.00
2022-09-17T05:38:01.524Z,10.05
2022-09-17T05:40:29.007Z,9.88
2022-09-17T05:43:00.155Z,9.88
2022-09-17T05:45:27.096Z,9.07
2022-09-17T05:47:58.548Z,9.15
2022-09-17T05:50:26.320Z,8.50
2022-09-17T05:52:53.862Z,8.10
2022-09-17T05:55:22.361Z,8.35
2022-09-17T05:57:51.549Z,8.00
2022-09-17T06:00:18.310Z,8.35
2022-09-17T06:02:45.002Z,8.50
2022-09-17T06:05:11.749Z,8.52
2022-09-17T06:07:39.192Z,7.35
2022-09-17T06:10:08.121Z,7.25
2022-09-17T06:12:35.685Z,7.50
2022-09-17T06:15:03.809Z,6.95
2022-09-17T06:17:34.604Z,8.02
2022-09-17T06:20:01.606Z,8.32
2022-09-17T06:22:28.309Z,8.32
2022-09-17T06:24:54.969Z,8.27
2022-09-17T06:27:21.564Z,7.97
2022-09-17T06:29:48.149Z,8.60
2022-09-17T06:32:17.050Z,8.00
2022-09-17T06:34:43.959Z,7.97
2022-09-17T06:37:10.601Z,6.82
2022-09-17T06:39:37.228Z,6.60
2022-09-17T06:42:03.998Z,7.10
2022-09-17T06:44:30.613Z,7.07
2022-09-17T06:46:57.303Z,6.50
2022-09-17T06:49:27.104Z,6.50
2022-09-17T06:51:57.008Z,6.78
2022-09-17T06:54:23.678Z,6.28
2022-09-17T06:56:50.284Z,6.45
2022-09-17T06:59:17.732Z,6.80
2022-09-17T07:01:44.726Z,6.43
2022-09-17T07:04:11.296Z,6.72
2022-09-17T07:06:37.936Z,6.88
2022-09-17T07:09:09.081Z,5.30
2022-09-17T07:11:38.268Z,5.50
2022-09-17T07:14:05.393Z,6.50
2022-09-17T07:16:35.881Z,6.00
2022-09-17T07:19:03.892Z,5.07
2022-09-17T07:21:30.636Z,5.20
2022-09-17T07:23:57.640Z,5.13
2022-09-17T07:26:24.325Z,4.63
2022-09-17T07:28:50.981Z,4.93
2022-09-17T07:31:17.726Z,5.20
2022-09-17T07:33:45.426Z,5.75
2022-09-17T07:36:13.689Z,5.07
2022-09-17T07:38:40.488Z,5.85
2022-09-17T07:41:13.034Z,5.78
2022-09-17T07:43:40.144Z,5.53
2022-09-17T07:46:08.407Z,5.22
2022-09-17T07:48:35.162Z,4.88
2022-09-17T07:51:01.854Z,5.18
2022-09-17T07:53:28.604Z,5.55
2022-09-17T07:55:57.153Z,5.40
2022-09-17T07:58:34.699Z,5.25
2022-09-17T08:01:07.129Z,5.00
2022-09-17T08:03:35.012Z,4.97
2022-09-17T08:06:06.769Z,4.78
2022-09-17T08:08:36.012Z,4.90
2022-09-17T08:11:23.699Z,4.90
2022-09-17T08:14:00.032Z,4.80
2022-09-17T08:16:27.385Z,4.88
2022-09-17T08:18:56.301Z,4.20
2022-09-17T08:21:24.073Z,4.27
2022-09-17T08:23:53.730Z,4.55
2022-09-17T08:26:22.972Z,4.65
2022-09-17T08:28:52.263Z,4.38
2022-09-17T08:31:19.628Z,4.50
2022-09-17T08:33:47.773Z,5.30
2022-09-17T08:36:16.356Z,4.90
2022-09-17T08:38:44.037Z,4.50
2022-09-17T08:41:11.074Z,4.60
2022-09-17T08:43:52.956Z,4.13
2022-09-17T08:46:19.928Z,4.75
2022-09-17T08:49:25.046Z,4.20
2022-09-17T08:51:53.335Z,4.00
2022-09-17T08:54:29.082Z,4.43
2022-09-17T08:57:12.858Z,4.28
2022-09-17T08:59:53.825Z,4.20
2022-09-17T09:02:32.567Z,4.80
2022-09-17T09:05:19.725Z,5.13
2022-09-17T09:07:53.159Z,4.70
2022-09-17T09:10:24.515Z,4.85
2022-09-17T09:12:56.485Z,5.03
2022-09-17T09:15:45.380Z,4.90
2022-09-17T09:18:21.056Z,5.43
2022-09-17T09:20:53.475Z,5.60
2022-09-17T09:23:48.968Z,5.32
2022-09-17T09:26:23.971Z,5.88
2022-09-17T09:28:59.328Z,6.47
2022-09-17T09:32:15.226Z,6.40
2022-09-17T09:34:42.855Z,6.32
2022-09-17T09:37:24.492Z,5.93
2022-09-17T09:39:54.069Z,5.75
2022-09-17T09:42:29.263Z,6.13
2022-09-17T09:45:05.102Z,5.68
2022-09-17T09:47:59.052Z,5.47
2022-09-17T09:51:05.586Z,5.30
2022-09-17T09:53:44.825Z,4.85
2022-09-17T09:56:39.200Z,4.25
2022-09-17T09:59:11.593Z,4.60
2022-09-17T10:01:42.442Z,4.60
2022-09-17T10:04:26.739Z,4.50
2022-09-17T10:06:59.901Z,4.63
2022-09-17T10:09:27.830Z,4.53
2022-09-17T10:12:00.394Z,4.07
2022-09-17T10:14:29.984Z,4.47
2022-09-17T10:17:19.273Z,4.07
2022-09-17T10:20:06.998Z,4.28
2022-09-17T10:22:39.549Z,4.85
2022-09-17T10:25:21.283Z,4.60
2022-09-17T10:27:48.860Z,4.57
2022-09-17T10:30:17.856Z,5.03
2022-09-17T10:32:44.695Z,4.47
2022-09-17T10:35:18.327Z,4.32
2022-09-17T10:37:50.652Z,4.30
2022-09-17T10:40:20.372Z,4.22
2022-09-17T10:45:31.356Z,4.70
2022-09-17T10:48:00.439Z,4.07
2022-09-17T10:50:30.611Z,4.50
2022-09-17T10:53:03.832Z,4.55
2022-09-17T10:55:45.703Z,4.60
2022-09-17T10:58:27.725Z,3.88
2022-09-17T11:01:03.080Z,4.43
2022-09-17T11:03:35.578Z,4.10
2022-09-17T11:06:25.891Z,3.85
2022-09-17T11:09:27.900Z,4.80
2022-09-17T11:12:15.589Z,4.43
2022-09-17T11:15:03.587Z,4.57
2022-09-17T11:18:08.652Z,4.05
2022-09-17T11:21:02.036Z,3.75
2022-09-17T11:24:05.533Z,3.88
2022-09-17T11:26:38.453Z,4.25
2022-09-17T11:29:40.702Z,4.60
2022-09-17T11:32:32.304Z,4.20
2022-09-17T11:35:16.531Z,4.75
2022-09-17T11:37:54.641Z,4.28
2022-09-17T11:40:30.527Z,4.00
2022-09-17T11:43:04.351Z,4.50
2022-09-17T11:45:38.667Z,4.40
2022-09-17T11:48:20.331Z,4.25
2022-09-17T11:50:55.300Z,4.72
2022-09-17T11:53:30.544Z,3.92
2022-09-17T11:56:02.862Z,4.18
2022-09-17T11:58:50.086Z,4.50
2022-09-17T12:01:40.492Z,4.40
2022-09-17T12:04:36.685Z,4.40
2022-09-17T12:07:17.241Z,4.65
2022-09-17T12:09:48.648Z,4.32
2022-09-17T12:12:44.891Z,4.70
2022-09-17T12:15:16.731Z,4.22
2022-09-17T12:18:08.668Z,4.38
2022-09-17T12:20:45.432Z,4.38
2022-09-17T12:23:17.799Z,4.55
2022-09-17T12:26:06.949Z,4.40
2022-09-17T12:28:59.692Z,5.18
2022-09-17T12:31:46.170Z,4.60
2022-09-17T12:34:31.445Z,5.18
2022-09-17T12:37:08.383Z,4.80
2022-09-17T12:39:53.630Z,5.80
2022-09-17T12:42:23.552Z,4.40
2022-09-17T12:47:53.525Z,3.97
2022-09-17T12:50:53.452Z,4.28
2022-09-17T12:53:30.799Z,4.78
2022-09-17T12:56:05.943Z,4.60
2022-09-17T12:58:58.633Z,4.28
2022-09-17T13:02:00.503Z,3.85
2022-09-17T13:05:02.137Z,4.00
2022-09-17T13:07:48.532Z,4.10
2022-09-17T13:11:00.299Z,4.20
2022-09-17T13:13:32.652Z,4.10
2022-09-17T13:16:13.311Z,4.28
2022-09-17T13:19:39.412Z,4.05
2022-09-17T13:22:13.720Z,3.75
2022-09-17T13:24:44.774Z,3.63
2022-09-17T13:27:27.831Z,3.50
2022-09-17T13:29:54.385Z,3.58
2022-09-17T13:32:51.384Z,3.30
2022-09-17T13:35:18.120Z,3.13
2022-09-17T13:37:44.664Z,3.38
2022-09-17T13:40:24.668Z,3.17
2022-09-17T13:42:57.586Z,3.08
2022-09-17T13:45:26.046Z,3.10
2022-09-17T13:48:00.417Z,3.10
2022-09-17T13:50:32.874Z,3.20
2022-09-17T13:53:06.363Z,3.10
2022-09-17T13:55:45.401Z,2.88
2022-09-17T13:58:33.566Z,3.22
2022-09-17T14:01:12.647Z,3.38
2022-09-17T14:03:44.380Z,3.13
2022-09-17T14:06:11.308Z,3.53
2022-09-17T14:08:43.787Z,3.13
2022-09-17T14:11:22.650Z,3.30
2022-09-17T14:14:35.713Z,3.22
2022-09-17T14:17:02.741Z,2.95
2022-09-17T14:19:51.578Z,3.00
2022-09-17T14:22:25.688Z,2.70
2022-09-17T14:24:54.402Z,2.70
2022-09-17T14:28:03.460Z,3.50
2022-09-17T14:30:31.792Z,2.83
2022-09-17T14:33:01.605Z,3.35
2022-09-17T14:36:08.182Z,3.17
2022-09-17T14:38:44.600Z,3.40
2022-09-17T14:41:11.274Z,3.03
2022-09-17T14:43:48.388Z,3.40
2022-09-17T14:46:24.454Z,3.80
2022-09-17T14:48:51.576Z,3.80
2022-09-17T14:51:18.483Z,3.40
2022-09-17T14:53:50.039Z,3.35
2022-09-17T14:56:21.605Z,3.35
2022-09-17T14:58:52.629Z,4.15
2022-09-17T15:01:30.538Z,3.70
2022-09-17T15:04:27.554Z,3.88
2022-09-17T15:07:07.423Z,4.88
2022-09-17T15:12:01.231Z,3.60
2022-09-17T15:14:33.741Z,3.92
2022-09-17T15:17:02.867Z,3.40
2022-09-17T15:19:40.376Z,4.22
2022-09-17T15:22:15.556Z,3.33
2022-09-17T15:25:00.317Z,3.75
2022-09-17T15:27:36.023Z,3.47
2022-09-17T15:30:05.729Z,3.20
2022-09-17T15:32:36.236Z,3.88
2022-09-17T15:35:12.072Z,4.13
2022-09-17T15:37:55.911Z,3.03
2022-09-17T15:40:36.585Z,3.30
2022-09-17T15:43:16.866Z,3.53
2022-09-17T15:45:43.488Z,3.58
2022-09-17T15:48:24.888Z,3.40
2022-09-17T15:50:54.291Z,2.97
2022-09-17T15:53:30.250Z,2.97
2022-09-17T15:56:17.498Z,3.58
2022-09-17T15:59:02.451Z,3.30
2022-09-17T16:01:29.197Z,3.28
2022-09-17T16:03:58.968Z,3.88
2022-09-17T16:06:25.754Z,3.95
2022-09-17T16:08:54.940Z,3.88
2022-09-17T16:11:24.328Z,3.85
2022-09-17T16:13:53.348Z,3.90
2022-09-17T16:16:26.709Z,3.83
2022-09-17T16:18:53.421Z,4.75
2022-09-17T16:21:20.404Z,4.82
2022-09-17T16:23:47.765Z,4.10
2022-09-17T16:26:18.974Z,4.57
2022-09-17T16:28:50.785Z,4.40
2022-09-17T16:31:17.552Z,4.22
2022-09-17T16:33:44.350Z,3.95
2022-09-17T16:36:11.180Z,4.35
2022-09-17T16:38:38.931Z,4.07
2022-09-17T16:41:06.300Z,4.32
2022-09-17T16:43:34.655Z,3.78
2022-09-17T16:46:07.068Z,4.22
2022-09-17T16:48:34.503Z,3.58
2022-09-17T16:51:06.413Z,3.47
2022-09-17T16:53:34.495Z,4.05
2022-09-17T16:56:01.595Z,4.00
2022-09-17T16:58:28.235Z,3.70
2022-09-17T17:00:55.006Z,4.10
2022-09-17T17:03:21.906Z,3.95
2022-09-17T17:05:49.010Z,4.00
2022-09-17T17:08:16.565Z,3.88
2022-09-17T17:10:43.280Z,4.30
2022-09-17T17:13:09.928Z,4.72
2022-09-17T17:15:36.532Z,4.82
2022-09-17T17:18:03.418Z,4.22
2022-09-17T17:20:32.015Z,3.75
2022-09-17T17:22:58.659Z,4.38
2022-09-17T17:25:27.101Z,4.47
2022-09-17T17:27:53.722Z,4.22
2022-09-17T17:30:20.423Z,3.90
2022-09-17T17:32:50.704Z,4.97
2022-09-17T17:35:17.648Z,4.38
2022-09-17T17:37:44.521Z,4.45
2022-09-17T17:40:11.622Z,4.18
2022-09-17T17:42:39.525Z,4.50
2022-09-17T17:45:07.406Z,4.18
2022-09-17T17:47:34.480Z,4.07
2022-09-17T17:50:01.186Z,3.60
2022-09-17T17:52:28.068Z,3.97
2022-09-17T17:54:54.671Z,4.03
2022-09-17T17:57:21.420Z,4.72
2022-09-17T17:59:48.089Z,4.70
2022-09-17T18:02:14.766Z,4.78
2022-09-17T18:04:41.420Z,5.05
2022-09-17T18:07:08.139Z,4.80
2022-09-17T18:09:34.851Z,5.00
2022-09-17T18:12:01.583Z,4.63
2022-09-17T18:14:28.196Z,5.15
2022-09-17T18:16:55.107Z,5.10
2022-09-17T18:19:22.371Z,5.57
2022-09-17T18:21:48.955Z,6.25
2022-09-17T18:24:15.576Z,5.25
2022-09-17T18:26:42.219Z,5.57
2022-09-17T18:29:09.419Z,5.40
2022-09-17T18:31:36.185Z,5.35
2022-09-17T18:34:10.137Z,5.03
2022-09-17T18:36:37.862Z,4.97
2022-09-17T18:39:44.531Z,4.97
2022-09-17T18:41:53.980Z,5.00
2022-09-17T18:44:21.932Z,4.80
2022-09-17T18:46:50.201Z,5.05
2022-09-17T18:49:17.249Z,4.43
2022-09-17T18:51:43.975Z,3.65
2022-09-17T18:54:12.727Z,4.30
2022-09-17T18:56:41.447Z,4.57
2022-09-17T18:59:08.686Z,4.57
2022-09-17T19:01:35.880Z,3.85
2022-09-17T19:04:03.016Z,4.07
2022-09-17T19:06:31.572Z,3.83
2022-09-17T19:09:02.158Z,3.95
2022-09-17T19:11:29.209Z,3.90
2022-09-17T19:13:55.870Z,3.63
2022-09-17T19:16:22.889Z,3.40
2022-09-17T19:18:50.465Z,3.70
2022-09-17T19:21:19.034Z,3.30
2022-09-17T19:23:47.488Z,3.30
2022-09-17T19:26:17.305Z,3.30
2022-09-17T19:28:44.599Z,3.58
2022-09-17T19:31:13.972Z,3.60
2022-09-17T19:33:41.212Z,3.45
2022-09-17T19:36:11.359Z,3.05
2022-09-17T19:38:38.301Z,2.80
2022-09-17T19:41:08.408Z,2.95
2022-09-17T19:43:35.201Z,2.95
2022-09-17T19:46:03.472Z,2.97
2022-09-17T19:48:30.624Z,3.08
2022-09-17T19:50:57.611Z,3.50
2022-09-17T19:53:27.707Z,3.60
2022-09-17T19:55:54.930Z,3.47
2022-09-17T19:58:21.623Z,3.60
2022-09-17T20:00:48.303Z,3.28
2022-09-17T20:03:15.042Z,3.50
2022-09-17T20:05:41.909Z,3.60
2022-09-17T20:08:08.616Z,3.15
2022-09-17T20:10:37.312Z,3.88
2022-09-17T20:13:04.627Z,3.63
2022-09-17T20:15:34.978Z,3.75
2022-09-17T20:18:02.333Z,4.00
2022-09-17T20:20:29.153Z,3.65
2022-09-17T20:22:56.285Z,3.33
2022-09-17T20:25:26.441Z,3.70
2022-09-17T20:27:53.905Z,3.67
2022-09-17T20:30:20.753Z,3.83
2022-09-17T20:32:47.951Z,3.90
2022-09-17T20:35:14.757Z,3.95
2022-09-17T20:38:44.513Z,4.10
2022-09-17T20:40:30.363Z,5.25
2022-09-17T20:42:57.129Z,4.30
2022-09-17T20:45:23.745Z,4.10
2022-09-17T20:47:51.161Z,3.92
2022-09-17T20:50:18.701Z,4.38
2022-09-17T20:52:45.307Z,4.00
2022-09-17T20:55:13.312Z,4.00
2022-09-17T20:57:40.237Z,4.00
2022-09-17T21:00:17.950Z,4.22
2022-09-17T21:02:50.541Z,4.15
2022-09-17T21:05:18.358Z,4.57
2022-09-17T21:07:45.219Z,5.65
2022-09-17T21:10:13.053Z,4.72
2022-09-17T21:12:39.728Z,4.60
2022-09-17T21:15:06.690Z,4.30
2022-09-17T21:17:33.989Z,4.82
2022-09-17T21:20:00.679Z,4.97
2022-09-17T21:22:27.313Z,4.75
2022-09-17T21:24:53.926Z,4.38
2022-09-17T21:27:20.500Z,4.45
2022-09-17T21:29:47.089Z,3.85
2022-09-17T21:32:13.698Z,4.72
2022-09-17T21:34:40.318Z,4.10
2022-09-17T21:37:07.057Z,4.25
2022-09-17T21:39:35.600Z,3.95
2022-09-17T21:42:02.312Z,4.20
2022-09-17T21:44:28.909Z,3.50
2022-09-17T21:46:57.689Z,4.20
2022-09-17T21:49:25.113Z,4.00
2022-09-17T21:51:52.087Z,4.55
2022-09-17T21:54:19.126Z,4.60
2022-09-17T21:56:46.839Z,4.47
2022-09-17T21:59:15.960Z,4.95
2022-09-17T22:01:46.640Z,4.40
2022-09-17T22:04:19.613Z,5.80
2022-09-17T22:06:47.566Z,3.92
2022-09-17T22:09:17.864Z,4.65
2022-09-17T22:11:45.341Z,4.53
2022-09-17T22:14:14.682Z,4.25
2022-09-17T22:16:46.559Z,5.05
2022-09-17T22:19:16.042Z,5.50
2022-09-17T22:21:47.450Z,7.03
2022-09-17T22:24:16.303Z,6.18
2022-09-17T22:26:45.505Z,5.03
2022-09-17T22:29:18.384Z,5.35
2022-09-17T22:31:46.216Z,5.43
2022-09-17T22:34:16.507Z,4.82
2022-09-17T22:36:43.356Z,5.80
2022-09-17T22:39:10.269Z,6.55
2022-09-17T22:41:42.824Z,6.93
2022-09-17T22:44:12.561Z,7.35
2022-09-17T22:46:40.662Z,5.20
2022-09-17T22:49:09.520Z,4.22
2022-09-17T22:51:37.504Z,5.20
2022-09-17T22:54:04.764Z,4.07
2022-09-17T22:56:31.485Z,4.40
2022-09-17T22:58:58.904Z,4.60
2022-09-17T23:01:31.399Z,4.68
2022-09-17T23:03:59.312Z,4.35
2022-09-17T23:06:31.999Z,4.43
2022-09-17T23:08:59.320Z,4.65
2022-09-17T23:11:34.848Z,4.50
2022-09-17T23:14:03.860Z,4.93
2022-09-17T23:16:45.811Z,4.50
2022-09-17T23:19:13.162Z,4.20
2022-09-17T23:21:40.217Z,4.57
2022-09-17T23:24:07.996Z,4.03
2022-09-17T23:26:34.773Z,3.92
2022-09-17T23:29:05.032Z,3.80
2022-09-17T23:31:34.787Z,3.40
2022-09-17T23:34:02.189Z,3.33
2022-09-17T23:36:30.911Z,3.50
2022-09-17T23:38:58.964Z,3.00
2022-09-17T23:41:37.460Z,2.55
2022-09-17T23:44:08.502Z,2.83
2022-09-17T23:46:39.164Z,2.50
2022-09-17T23:49:06.583Z,2.50
2022-09-17T23:51:35.868Z,2.10
2022-09-17T23:54:03.161Z,2.40
2022-09-17T23:56:29.970Z,2.53
2022-09-17T23:58:59.428Z,2.50
